Time;durP1;ratioP1;P1;durP2;ratioP2;P2;SDS_P1;SDS_P2;PMS_P1;PMS_P2;Temp;Humidity;BMP_temperature;BMP_pressure;BME280_temperature;BME280_humidity;BME280_pressure;Samples;Min_cycle;Max_cycle;Signal;HPM_P1;HPM_P2
2021/09/22 00:00:26;;;;;;;13.53;9.03;;;;;9.70;102499.00;;;;10428286;28;20213;-81
2021/09/22 00:05:28;;;;;;;11.70;9.07;;;;;9.60;102486.00;;;;10460961;28;20973;-80
2021/09/22 00:10:31;;;;;;;11.33;9.27;;;;;9.50;102488.00;;;;10466762;28;20195;-80
2021/09/22 00:15:33;;;;;;;17.63;9.63;;;;;9.40;102482.00;;;;10454431;28;20194;-80
2021/09/22 00:20:35;;;;;;;12.73;8.67;;;;;9.40;102471.00;;;;10446038;28;20217;-80
2021/09/22 00:25:37;;;;;;;14.97;8.80;;;;;9.30;102476.00;;;;10430697;28;20202;-81
2021/09/22 00:30:39;;;;;;;10.73;9.03;;;;;9.30;102467.00;;;;10429833;28;20190;-81
2021/09/22 00:35:41;;;;;;;13.33;9.20;;;;;9.30;102470.00;;;;10468062;28;20204;-81
2021/09/22 00:40:43;;;;;;;15.73;9.20;;;;;9.20;102477.00;;;;10502450;28;20263;-81
2021/09/22 00:45:45;;;;;;;13.63;9.50;;;;;9.20;102474.00;;;;10444614;28;20198;-80
2021/09/22 00:50:49;;;;;;;14.40;10.53;;;;;9.30;102476.00;;;;10435692;28;20185;-80
2021/09/22 00:55:52;;;;;;;15.30;10.90;;;;;9.30;102490.00;;;;10435032;28;20543;-81
2021/09/22 01:01:01;;;;;;;15.93;11.10;;;;;9.20;102485.00;;;;10465299;28;20571;-80
2021/09/22 01:06:03;;;;;;;13.50;10.40;;;;;9.20;102490.00;;;;10490336;28;20198;-80
2021/09/22 01:11:06;;;;;;;12.53;9.07;;;;;9.20;102481.00;;;;10406369;28;20198;-80
2021/09/22 01:16:08;;;;;;;14.67;10.57;;;;;9.10;102485.00;;;;10439114;28;20193;-80
2021/09/22 01:21:10;;;;;;;13.00;10.10;;;;;9.10;102481.00;;;;10475745;28;20209;-80
2021/09/22 01:26:14;;;;;;;16.17;11.33;;;;;9.00;102482.00;;;;10440998;28;20263;-81
2021/09/22 01:31:20;;;;;;;15.20;10.43;;;;;9.00;102495.00;;;;10449117;28;20216;-81
2021/09/22 01:36:22;;;;;;;17.80;10.53;;;;;8.90;102474.00;;;;10432846;28;20653;-81
2021/09/22 01:41:30;;;;;;;15.00;10.83;;;;;8.90;102465.00;;;;10449579;28;20206;-81
2021/09/22 01:46:36;;;;;;;14.77;10.07;;;;;8.80;102464.00;;;;10418019;28;20190;-81
2021/09/22 01:51:38;;;;;;;13.93;10.63;;;;;8.80;102465.00;;;;10453720;28;20221;-80
2021/09/22 01:56:48;;;;;;;16.87;11.47;;;;;8.80;102466.00;;;;10462024;28;20213;-80
2021/09/22 02:01:51;;;;;;;13.90;10.27;;;;;8.70;102450.00;;;;10473451;28;20204;-80
2021/09/22 02:07:05;;;;;;;13.83;9.73;;;;;8.70;102447.00;;;;10466018;28;20233;-81
2021/09/22 02:12:08;;;;;;;13.43;10.37;;;;;8.70;102454.00;;;;10458464;28;20208;-80
2021/09/22 02:17:10;;;;;;;14.60;10.13;;;;;8.60;102462.00;;;;10453028;28;20217;-81
2021/09/22 02:22:16;;;;;;;14.87;10.83;;;;;8.60;102462.00;;;;10418026;28;20198;-81
2021/09/22 02:27:45;;;;;;;15.27;10.43;;;;;8.50;102457.00;;;;10457990;28;20276;-81
2021/09/22 02:32:49;;;;;;;14.90;10.27;;;;;8.50;102450.00;;;;10447463;28;20194;-81
2021/09/22 02:37:51;;;;;;;11.13;9.40;;;;;8.40;102446.00;;;;10480541;28;20240;-81
2021/09/22 02:43:12;;;;;;;16.97;11.13;;;;;8.40;102452.00;;;;10423249;28;20191;-81
2021/09/22 02:48:14;;;;;;;11.67;8.93;;;;;8.40;102446.00;;;;10441000;28;20636;-81
2021/09/22 02:53:18;;;;;;;13.47;10.10;;;;;8.40;102443.00;;;;10435183;28;20216;-81
2021/09/22 02:58:20;;;;;;;12.80;10.07;;;;;8.40;102438.00;;;;10458340;28;20233;-81
2021/09/22 03:03:25;;;;;;;15.73;10.90;;;;;8.40;102436.00;;;;10437512;28;20280;-81
2021/09/22 03:08:28;;;;;;;15.00;10.13;;;;;8.40;102433.00;;;;10419832;28;20198;-80
2021/09/22 03:13:30;;;;;;;15.70;10.17;;;;;8.40;102426.00;;;;10435701;28;20217;-81
2021/09/22 03:18:33;;;;;;;16.47;10.03;;;;;8.30;102427.00;;;;10452310;28;20696;-81
2021/09/22 03:23:35;;;;;;;14.80;9.63;;;;;8.30;102418.00;;;;10443851;28;20202;-81
2021/09/22 03:28:37;;;;;;;13.40;9.57;;;;;8.20;102421.00;;;;10433716;28;20190;-81
2021/09/22 03:33:40;;;;;;;15.37;9.73;;;;;8.10;102421.00;;;;10447347;28;20276;-81
2021/09/22 03:38:44;;;;;;;17.97;10.40;;;;;8.10;102418.00;;;;10452602;28;20225;-81
2021/09/22 03:43:47;;;;;;;14.90;9.67;;;;;8.10;102416.00;;;;10464470;28;20262;-81
2021/09/22 03:48:49;;;;;;;15.17;10.37;;;;;8.00;102421.00;;;;10505753;28;20197;-80
2021/09/22 03:53:51;;;;;;;16.87;10.07;;;;;8.00;102418.00;;;;10477001;28;20205;-80
2021/09/22 03:58:54;;;;;;;14.63;10.33;;;;;8.00;102418.00;;;;10457973;28;20269;-80
2021/09/22 04:03:57;;;;;;;15.80;10.37;;;;;7.90;102421.00;;;;10431962;28;20186;-80
2021/09/22 04:09:01;;;;;;;15.47;10.13;;;;;7.90;102412.00;;;;10445076;28;21074;-80
2021/09/22 04:14:04;;;;;;;15.87;10.67;;;;;7.80;102412.00;;;;10452821;28;20210;-82
2021/09/22 04:19:06;;;;;;;14.17;9.83;;;;;7.80;102413.00;;;;10441828;28;20234;-81
2021/09/22 04:24:09;;;;;;;16.57;10.80;;;;;7.70;102405.00;;;;10424770;28;20222;-83
2021/09/22 04:29:12;;;;;;;11.97;9.57;;;;;7.70;102402.00;;;;10458824;28;20710;-81
2021/09/22 04:34:37;;;;;;;12.60;9.80;;;;;7.70;102411.00;;;;10466378;28;20440;-84
2021/09/22 04:39:57;;;;;;;13.70;9.50;;;;;7.60;102411.00;;;;10481746;28;20221;-82
2021/09/22 04:45:19;;;;;;;13.57;9.67;;;;;7.60;102398.00;;;;10482878;28;20208;-83
2021/09/22 04:50:39;;;;;;;13.23;9.63;;;;;7.60;102403.00;;;;10459976;28;20194;-82
2021/09/22 04:55:59;;;;;;;15.07;9.50;;;;;7.60;102408.00;;;;10472766;28;20218;-82
2021/09/22 05:01:20;;;;;;;13.33;9.23;;;;;7.50;102411.00;;;;10483220;28;20201;-82
2021/09/22 05:06:41;;;;;;;15.70;11.17;;;;;7.60;102417.00;;;;10450350;28;20198;-83
2021/09/22 05:12:02;;;;;;;17.73;10.93;;;;;7.60;102412.00;;;;10450326;28;20216;-82
2021/09/22 05:17:24;;;;;;;15.83;10.17;;;;;7.60;102428.00;;;;10465270;28;20217;-81
2021/09/22 05:22:44;;;;;;;20.57;11.23;;;;;7.50;102414.00;;;;10477988;28;20224;-81
2021/09/22 05:28:04;;;;;;;19.80;10.13;;;;;7.50;102425.00;;;;10482418;28;20269;-81
2021/09/22 05:33:25;;;;;;;17.60;11.17;;;;;7.50;102422.00;;;;10479557;28;20197;-81
2021/09/22 05:38:46;;;;;;;14.97;11.23;;;;;7.50;102421.00;;;;10500308;28;20221;-83
2021/09/22 05:44:06;;;;;;;18.90;10.80;;;;;7.60;102437.00;;;;10493786;28;20193;-81
2021/09/22 05:49:28;;;;;;;19.60;10.57;;;;;7.60;102430.00;;;;10498464;28;20583;-81
2021/09/22 05:54:49;;;;;;;15.40;11.57;;;;;7.60;102440.00;;;;10442154;28;20198;-81
2021/09/22 06:00:10;;;;;;;16.40;11.13;;;;;7.70;102452.00;;;;10439087;28;20275;-82
2021/09/22 06:05:15;;;;;;;15.10;10.53;;;;;7.90;102449.00;;;;10464856;28;20209;-82
2021/09/22 06:10:45;;;;;;;15.97;11.20;;;;;8.10;102461.00;;;;10473237;28;20197;-82
2021/09/22 06:16:24;;;;;;;18.30;11.47;;;;;8.40;102473.00;;;;10433280;28;20206;-82
2021/09/22 06:21:28;;;;;;;17.63;11.03;;;;;8.70;102481.00;;;;10445184;28;20212;-82
2021/09/22 06:26:31;;;;;;;15.83;11.10;;;;;9.00;102480.00;;;;10441016;28;20190;-82
2021/09/22 06:31:36;;;;;;;17.60;12.17;;;;;9.30;102490.00;;;;10465479;28;20198;-82
2021/09/22 06:36:54;;;;;;;19.33;11.70;;;;;9.60;102495.00;;;;10446415;28;20205;-80
2021/09/22 06:41:56;;;;;;;17.40;11.47;;;;;9.90;102488.00;;;;10480615;28;20224;-80
2021/09/22 06:47:01;;;;;;;18.60;12.87;;;;;10.30;102494.00;;;;10470648;28;20585;-79
2021/09/22 06:52:08;;;;;;;19.03;12.80;;;;;10.60;102502.00;;;;10423478;28;20190;-80
2021/09/22 06:57:10;;;;;;;15.80;10.30;;;;;10.80;102505.00;;;;10477105;28;20189;-80
2021/09/22 07:02:12;;;;;;;15.63;11.30;;;;;11.20;102523.00;;;;10438674;28;20225;-80
2021/09/22 07:07:17;;;;;;;17.70;10.87;;;;;11.50;102533.00;;;;10449115;28;20522;-81
2021/09/22 07:12:19;;;;;;;14.20;10.23;;;;;11.70;102521.00;;;;10422500;28;20194;-79
2021/09/22 07:17:21;;;;;;;13.37;10.33;;;;;11.90;102531.00;;;;10451692;28;20252;-79
2021/09/22 07:22:23;;;;;;;14.83;10.27;;;;;12.30;102529.00;;;;10498462;28;20205;-79
2021/09/22 07:27:39;;;;;;;15.73;11.93;;;;;12.50;102529.00;;;;10433617;28;20194;-80
2021/09/22 07:32:43;;;;;;;17.03;11.33;;;;;12.90;102540.00;;;;10450171;28;20190;-79
2021/09/22 07:37:45;;;;;;;18.27;12.20;;;;;13.20;102545.00;;;;10487348;28;20198;-79
2021/09/22 07:42:47;;;;;;;18.70;12.30;;;;;13.70;102542.00;;;;10469476;28;20240;-80
2021/09/22 07:47:49;;;;;;;18.63;13.93;;;;;14.10;102542.00;;;;10487812;28;20722;-79
2021/09/22 07:52:51;;;;;;;15.83;12.20;;;;;14.70;102544.00;;;;10499504;28;20611;-79
2021/09/22 07:57:54;;;;;;;17.73;12.17;;;;;15.30;102542.00;;;;10426755;28;20222;-80
2021/09/22 08:02:59;;;;;;;18.83;12.43;;;;;16.00;102542.00;;;;10474668;28;20197;-80
2021/09/22 08:08:02;;;;;;;17.60;12.43;;;;;16.40;102542.00;;;;10449706;28;20194;-80
2021/09/22 08:13:05;;;;;;;20.58;13.50;;;;;16.80;102542.00;;;;10433492;28;20200;-81
2021/09/22 08:18:07;;;;;;;21.60;13.02;;;;;17.10;102537.00;;;;10411253;28;20217;-80
2021/09/22 08:23:09;;;;;;;18.88;13.30;;;;;17.60;102538.00;;;;10467030;28;20197;-80
2021/09/22 08:28:11;;;;;;;16.73;11.80;;;;;17.70;102542.00;;;;10425394;28;20285;-80
2021/09/22 08:33:14;;;;;;;21.17;13.15;;;;;17.90;102538.00;;;;10422950;28;20198;-80
2021/09/22 08:38:16;;;;;;;16.50;11.77;;;;;18.40;102539.00;;;;10440970;28;20242;-80
2021/09/22 08:43:24;;;;;;;19.90;11.52;;;;;18.60;102541.00;;;;10429980;28;20244;-80
2021/09/22 08:48:27;;;;;;;17.58;11.32;;;;;18.90;102528.00;;;;10455331;28;20608;-80
2021/09/22 08:53:29;;;;;;;17.25;11.88;;;;;19.30;102520.00;;;;10466871;28;20197;-80
2021/09/22 08:58:30;;;;;;;15.07;11.57;;;;;19.60;102520.00;;;;10456031;28;20214;-78
2021/09/22 09:03:39;;;;;;;16.13;10.88;;;;;20.00;102525.00;;;;10456068;28;20197;-80
2021/09/22 09:08:41;;;;;;;17.55;11.18;;;;;20.50;102530.00;;;;10473964;28;20648;-80
2021/09/22 09:13:52;;;;;;;14.48;10.52;;;;;20.70;102529.00;;;;10494311;28;20209;-78
2021/09/22 09:18:55;;;;;;;17.90;11.52;;;;;21.20;102519.00;;;;10456265;28;20647;-78
2021/09/22 09:23:59;;;;;;;16.00;10.60;;;;;21.60;102515.00;;;;10410023;28;20694;-78
2021/09/22 09:29:02;;;;;;;11.77;9.23;;;;;21.70;102515.00;;;;10471288;28;20614;-78
2021/09/22 09:34:05;;;;;;;14.52;9.98;;;;;21.40;102512.00;;;;10462317;28;20198;-78
2021/09/22 09:39:09;;;;;;;10.80;9.00;;;;;21.40;102514.00;;;;10436208;28;20253;-78
2021/09/22 09:44:12;;;;;;;14.13;9.73;;;;;22.10;102502.00;;;;10437652;28;20201;-78
2021/09/22 09:49:22;;;;;;;13.77;9.13;;;;;22.70;102495.00;;;;10453019;28;20194;-78
2021/09/22 09:54:36;;;;;;;13.35;9.85;;;;;23.20;102495.00;;;;10436105;28;20198;-78
2021/09/22 09:59:49;;;;;;;11.52;8.00;;;;;23.50;102495.00;;;;10439481;28;20236;-78
2021/09/22 10:04:52;;;;;;;10.10;8.00;;;;;23.30;102501.00;;;;10459317;28;20193;-78
2021/09/22 10:09:55;;;;;;;11.43;8.50;;;;;23.30;102487.00;;;;10452780;28;20204;-78
2021/09/22 10:15:01;;;;;;;12.18;8.75;;;;;23.60;102485.00;;;;10452940;28;20198;-78
2021/09/22 10:20:04;;;;;;;10.90;8.75;;;;;23.80;102482.00;;;;10444341;28;20220;-78
2021/09/22 10:25:07;;;;;;;12.50;9.20;;;;;23.80;102475.00;;;;10460992;28;20196;-79
2021/09/22 10:30:15;;;;;;;13.40;8.68;;;;;24.00;102473.00;;;;10470342;28;20194;-78
2021/09/22 10:35:26;;;;;;;14.02;8.73;;;;;24.10;102471.00;;;;10467664;28;20194;-78
2021/09/22 10:40:35;;;;;;;16.50;8.57;;;;;23.80;102458.00;;;;10450704;28;20271;-78
2021/09/22 10:45:37;;;;;;;12.27;7.15;;;;;24.10;102458.00;;;;10434664;28;20190;-78
2021/09/22 10:50:39;;;;;;;9.40;7.68;;;;;24.10;102455.00;;;;10439592;28;20240;-79
2021/09/22 10:56:05;;;;;;;11.98;8.10;;;;;24.40;102452.00;;;;10469609;28;20193;-78
2021/09/22 11:01:08;;;;;;;14.13;8.25;;;;;24.60;102442.00;;;;10469760;28;20336;-78
2021/09/22 11:06:42;;;;;;;13.60;7.60;;;;;24.80;102448.00;;;;10490463;28;20197;-78
2021/09/22 11:11:56;;;;;;;11.80;7.68;;;;;24.70;102438.00;;;;10456189;28;20202;-78
2021/09/22 11:17:26;;;;;;;11.52;8.38;;;;;24.40;102429.00;;;;10445687;28;20296;-78
2021/09/22 11:22:33;;;;;;;13.73;8.80;;;;;24.10;102422.00;;;;10454435;28;20206;-78
2021/09/22 11:27:37;;;;;;;11.80;8.25;;;;;23.90;102412.00;;;;10436302;28;20197;-79
2021/09/22 11:32:44;;;;;;;12.50;7.72;;;;;23.80;102411.00;;;;10433511;28;20193;-79
2021/09/22 11:37:56;;;;;;;8.75;6.82;;;;;24.30;102413.00;;;;10476536;28;20194;-76
2021/09/22 11:43:04;;;;;;;9.07;7.32;;;;;24.80;102405.00;;;;10449166;28;20711;-78
2021/09/22 11:48:08;;;;;;;8.95;5.72;;;;;25.00;102396.00;;;;10469879;28;20193;-78
2021/09/22 11:53:30;;;;;;;7.50;5.70;;;;;25.50;102389.00;;;;10448591;28;20886;-77
2021/09/22 11:58:34;;;;;;;7.20;5.35;;;;;25.40;102389.00;;;;10466998;28;20205;-77
2021/09/22 12:03:38;;;;;;;8.57;5.32;;;;;25.40;102381.00;;;;10449613;28;20272;-77
2021/09/22 12:08:44;;;;;;;8.10;4.90;;;;;25.30;102365.00;;;;10448335;28;20641;-78
2021/09/22 12:13:48;;;;;;;9.00;4.55;;;;;24.90;102358.00;;;;10469000;28;20669;-77
2021/09/22 12:18:56;;;;;;;6.22;3.85;;;;;24.70;102345.00;;;;10464973;28;20218;-78
2021/09/22 12:24:05;;;;;;;7.57;4.85;;;;;24.60;102334.00;;;;10468834;28;20194;-78
2021/09/22 12:29:09;;;;;;;7.45;4.80;;;;;24.60;102328.00;;;;10456963;28;20252;-77
2021/09/22 12:34:18;;;;;;;6.35;4.13;;;;;25.00;102323.00;;;;10459389;28;20243;-77
2021/09/22 12:39:26;;;;;;;4.90;3.58;;;;;25.20;102312.00;;;;10474270;28;20549;-77
2021/09/22 12:44:29;;;;;;;5.20;4.00;;;;;25.40;102307.00;;;;10446249;28;20189;-78
2021/09/22 12:49:31;;;;;;;5.03;2.53;;;;;25.60;102305.00;;;;10489446;28;20185;-77
2021/09/22 12:54:42;;;;;;;6.43;3.80;;;;;25.90;102315.00;;;;10473009;28;20239;-77
2021/09/22 12:59:44;;;;;;;7.20;3.80;;;;;25.90;102292.00;;;;10456748;28;20198;-77
2021/09/22 13:04:48;;;;;;;7.28;4.38;;;;;25.70;102285.00;;;;10474397;28;20232;-78
2021/09/22 13:10:01;;;;;;;7.25;4.28;;;;;25.50;102271.00;;;;10453450;28;20185;-77
2021/09/22 13:15:03;;;;;;;7.32;4.25;;;;;25.30;102270.00;;;;10460658;28;20193;-76
2021/09/22 13:20:06;;;;;;;9.10;4.40;;;;;25.20;102259.00;;;;10472669;28;20213;-77
2021/09/22 13:25:08;;;;;;;6.15;4.10;;;;;24.80;102245.00;;;;10454496;28;20552;-76
2021/09/22 13:30:10;;;;;;;9.35;3.53;;;;;24.40;102246.00;;;;10462653;28;20193;-77
2021/09/22 13:35:12;;;;;;;4.55;3.00;;;;;24.20;102243.00;;;;10483223;28;20243;-77
2021/09/22 13:40:14;;;;;;;6.32;3.00;;;;;24.00;102247.00;;;;10474620;28;20212;-80
2021/09/22 13:45:16;;;;;;;7.35;2.80;;;;;23.70;102244.00;;;;10470978;28;20829;-77
2021/09/22 13:50:18;;;;;;;4.68;3.20;;;;;23.80;102232.00;;;;10467586;28;20185;-76
2021/09/22 13:55:20;;;;;;;4.90;2.95;;;;;23.80;102221.00;;;;10472899;28;20194;-77
2021/09/22 14:00:22;;;;;;;2.95;2.50;;;;;23.80;102216.00;;;;10482706;28;20202;-77
2021/09/22 14:05:25;;;;;;;4.47;2.42;;;;;23.80;102215.00;;;;10484264;28;20208;-76
2021/09/22 14:10:32;;;;;;;9.43;2.40;;;;;23.80;102198.00;;;;10441556;28;20185;-77
2021/09/22 14:15:44;;;;;;;3.28;2.30;;;;;24.30;102206.00;;;;10477697;28;20216;-77
2021/09/22 14:20:53;;;;;;;3.90;2.28;;;;;24.10;102193.00;;;;10454692;28;20225;-76
2021/09/22 14:25:58;;;;;;;4.03;2.42;;;;;24.80;102185.00;;;;10463507;28;20185;-77
2021/09/22 14:31:01;;;;;;;4.20;2.55;;;;;24.40;102191.00;;;;10446320;28;20189;-77
2021/09/22 14:36:04;;;;;;;2.63;2.10;;;;;23.50;102191.00;;;;10475850;28;20236;-77
2021/09/22 14:41:06;;;;;;;4.68;2.20;;;;;22.90;102191.00;;;;10473049;28;20297;-77
2021/09/22 14:46:08;;;;;;;4.70;2.28;;;;;22.50;102169.00;;;;10449554;28;20301;-78
2021/09/22 14:51:11;;;;;;;4.40;2.30;;;;;22.20;102161.00;;;;10458942;28;20230;-77
2021/09/22 14:56:15;;;;;;;2.47;1.40;;;;;22.20;102149.00;;;;10457916;28;20198;-76
2021/09/22 15:01:17;;;;;;;2.30;1.40;;;;;22.00;102166.00;;;;10460681;28;20601;-77
2021/09/22 15:06:20;;;;;;;5.07;1.60;;;;;21.90;102157.00;;;;10442138;28;20273;-77
2021/09/22 15:11:22;;;;;;;2.70;1.67;;;;;21.80;102157.00;;;;10470837;28;20185;-76
2021/09/22 15:16:24;;;;;;;1.95;1.60;;;;;21.70;102150.00;;;;10474091;28;20665;-77
2021/09/22 15:21:26;;;;;;;5.15;2.08;;;;;21.70;102142.00;;;;10449296;28;20214;-75
2021/09/22 15:26:28;;;;;;;1.70;1.60;;;;;21.50;102143.00;;;;10473530;28;20201;-76
2021/09/22 15:31:30;;;;;;;4.22;1.73;;;;;21.30;102132.00;;;;10484841;28;20572;-75
2021/09/22 15:36:32;;;;;;;2.90;1.80;;;;;21.00;102137.00;;;;10486767;28;20881;-76
2021/09/22 15:41:34;;;;;;;3.55;1.73;;;;;20.80;102131.00;;;;10482130;28;20202;-76
2021/09/22 15:46:36;;;;;;;2.75;1.63;;;;;20.70;102129.00;;;;10472579;28;20189;-76
2021/09/22 15:51:38;;;;;;;2.33;2.10;;;;;20.50;102129.00;;;;10486199;28;20208;-76
2021/09/22 15:56:41;;;;;;;3.83;2.42;;;;;20.30;102128.00;;;;10490969;28;20200;-76
2021/09/22 16:01:44;;;;;;;2.65;1.85;;;;;20.20;102119.00;;;;10477965;28;20276;-76
2021/09/22 16:06:46;;;;;;;3.92;2.10;;;;;20.00;102113.00;;;;10465387;28;20194;-77
2021/09/22 16:11:49;;;;;;;3.97;1.80;;;;;20.00;102116.00;;;;10462664;28;20190;-76
2021/09/22 16:16:53;;;;;;;3.53;1.75;;;;;19.90;102126.00;;;;10470032;28;20211;-76
2021/09/22 16:21:55;;;;;;;1.95;1.83;;;;;19.70;102113.00;;;;10485000;28;20212;-77
2021/09/22 16:26:57;;;;;;;2.13;1.83;;;;;19.70;102102.00;;;;10485318;28;20244;-76
2021/09/22 16:32:03;;;;;;;4.78;2.38;;;;;19.50;102105.00;;;;10482031;28;20220;-76
2021/09/22 16:37:06;;;;;;;3.85;1.88;;;;;19.30;102092.00;;;;10481422;28;20649;-77
2021/09/22 16:42:08;;;;;;;4.35;2.38;;;;;19.00;102093.00;;;;10432373;28;20216;-77
2021/09/22 16:47:11;;;;;;;5.35;2.60;;;;;18.90;102082.00;;;;10454462;28;20194;-77
2021/09/22 16:52:13;;;;;;;6.90;3.53;;;;;18.60;102092.00;;;;10462678;28;20186;-77
2021/09/22 16:57:15;;;;;;;4.97;4.38;;;;;18.40;102089.00;;;;10454127;28;20289;-77
2021/09/22 17:02:17;;;;;;;8.60;4.20;;;;;18.30;102078.00;;;;10484077;28;20838;-77
2021/09/22 17:07:20;;;;;;;11.15;5.00;;;;;18.10;102077.00;;;;10461450;28;20205;-77
2021/09/22 17:12:37;;;;;;;9.80;4.82;;;;;17.90;102071.00;;;;10451317;28;20248;-77
2021/09/22 17:17:39;;;;;;;9.65;5.25;;;;;17.70;102065.00;;;;10486433;28;20205;-76
2021/09/22 17:22:41;;;;;;;8.48;5.60;;;;;17.40;102066.00;;;;10462310;28;20211;-77
2021/09/22 17:27:43;;;;;;;10.10;5.70;;;;;17.20;102066.00;;;;10453941;28;20197;-77
2021/09/22 17:32:45;;;;;;;6.68;5.22;;;;;17.00;102063.00;;;;10463604;28;20198;-76
2021/09/22 17:37:48;;;;;;;7.63;5.47;;;;;16.70;102060.00;;;;10452877;28;20660;-76
2021/09/22 17:42:50;;;;;;;7.13;5.30;;;;;16.40;102065.00;;;;10474265;28;20209;-77
2021/09/22 17:47:55;;;;;;;14.65;5.75;;;;;16.20;102069.00;;;;10442290;28;20735;-77
2021/09/22 17:52:58;;;;;;;9.93;5.50;;;;;16.00;102057.00;;;;10446209;28;20217;-77
2021/09/22 17:58:01;;;;;;;9.73;5.88;;;;;15.80;102074.00;;;;10446243;28;20197;-77
2021/09/22 18:03:03;;;;;;;7.60;5.67;;;;;15.60;102062.00;;;;10447759;28;20220;-77
2021/09/22 18:08:06;;;;;;;9.93;6.73;;;;;15.40;102062.00;;;;10448947;28;20208;-77
2021/09/22 18:13:08;;;;;;;10.10;6.80;;;;;15.20;102064.00;;;;10440570;28;20210;-77
2021/09/22 18:18:10;;;;;;;13.90;7.93;;;;;15.00;102049.00;;;;10472550;28;20579;-77
2021/09/22 18:23:14;;;;;;;11.00;6.73;;;;;14.90;102046.00;;;;10457889;28;20239;-77
2021/09/22 18:28:16;;;;;;;9.93;6.80;;;;;14.70;102045.00;;;;10437783;28;20221;-77
2021/09/22 18:33:18;;;;;;;10.13;6.93;;;;;14.60;102041.00;;;;10430288;28;20187;-77
2021/09/22 18:38:20;;;;;;;8.13;6.20;;;;;14.50;102034.00;;;;10434493;28;20288;-78
2021/09/22 18:43:22;;;;;;;12.67;7.77;;;;;14.30;102025.00;;;;10453696;28;20209;-77
2021/09/22 18:48:24;;;;;;;13.30;7.00;;;;;14.10;102029.00;;;;10452363;28;20245;-78
2021/09/22 18:53:26;;;;;;;11.67;6.80;;;;;14.10;102030.00;;;;10433549;28;20190;-77
2021/09/22 18:58:29;;;;;;;12.83;7.63;;;;;13.90;102036.00;;;;10446323;28;20217;-78
2021/09/22 19:03:31;;;;;;;13.43;7.83;;;;;13.80;102035.00;;;;10483572;28;20200;-77
2021/09/22 19:08:34;;;;;;;11.03;7.43;;;;;13.70;102038.00;;;;10451081;28;20189;-77
2021/09/22 19:13:36;;;;;;;9.60;6.90;;;;;13.60;102035.00;;;;10439851;28;20220;-77
2021/09/22 19:18:39;;;;;;;13.00;7.57;;;;;13.40;102029.00;;;;10458037;28;20256;-77
2021/09/22 19:23:41;;;;;;;8.53;6.60;;;;;13.30;102037.00;;;;10461033;28;20267;-77
2021/09/22 19:28:43;;;;;;;10.50;7.03;;;;;13.20;102026.00;;;;10458033;28;20288;-77
2021/09/22 19:33:45;;;;;;;12.10;6.63;;;;;13.20;102031.00;;;;10433618;28;20735;-77
2021/09/22 19:38:47;;;;;;;10.40;6.97;;;;;13.10;102027.00;;;;10449374;28;20244;-77
2021/09/22 19:43:49;;;;;;;10.40;6.73;;;;;13.00;102026.00;;;;10438252;28;20296;-77
2021/09/22 19:48:54;;;;;;;8.30;6.00;;;;;12.90;102026.00;;;;10457530;28;20277;-78
2021/09/22 19:53:57;;;;;;;7.73;5.97;;;;;12.80;102010.00;;;;10452691;28;20641;-77
2021/09/22 19:58:59;;;;;;;8.57;6.17;;;;;12.60;102013.00;;;;10430862;28;20231;-77
2021/09/22 20:04:01;;;;;;;9.43;5.63;;;;;12.50;102006.00;;;;10446689;28;20301;-77
2021/09/22 20:09:07;;;;;;;10.80;7.57;;;;;12.40;102005.00;;;;10420373;28;20320;-77
2021/09/22 20:14:12;;;;;;;10.83;7.33;;;;;12.40;101996.00;;;;10450356;28;20201;-78
2021/09/22 20:19:15;;;;;;;9.53;6.37;;;;;12.30;102007.00;;;;10419313;28;20210;-77
2021/09/22 20:24:17;;;;;;;9.83;6.43;;;;;12.20;102001.00;;;;10470801;28;20668;-77
2021/09/22 20:29:19;;;;;;;10.60;6.73;;;;;12.10;102003.00;;;;10412188;28;20190;-77
2021/09/22 20:34:21;;;;;;;11.87;7.60;;;;;12.10;101986.00;;;;10459506;28;20226;-77
2021/09/22 20:39:23;;;;;;;12.67;7.40;;;;;12.00;101985.00;;;;10461297;28;20217;-77
2021/09/22 20:44:25;;;;;;;13.03;7.40;;;;;11.90;101974.00;;;;10438005;28;20202;-77
2021/09/22 20:49:27;;;;;;;9.23;7.00;;;;;11.80;101977.00;;;;10465898;28;20208;-78
2021/09/22 20:54:29;;;;;;;11.70;7.50;;;;;11.80;101977.00;;;;10436529;28;20301;-77
2021/09/22 20:59:32;;;;;;;11.93;8.30;;;;;11.70;101969.00;;;;10465070;28;20256;-78
2021/09/22 21:04:34;;;;;;;12.33;7.90;;;;;11.70;101966.00;;;;10449813;28;20190;-78
2021/09/22 21:09:36;;;;;;;11.93;8.00;;;;;11.60;101965.00;;;;10433940;28;20198;-77
2021/09/22 21:14:39;;;;;;;12.67;7.20;;;;;11.50;101969.00;;;;10462527;28;20194;-78
2021/09/22 21:19:43;;;;;;;10.77;6.67;;;;;11.40;101977.00;;;;10444176;28;20210;-78
2021/09/22 21:24:46;;;;;;;9.57;6.27;;;;;11.30;101974.00;;;;10475550;28;20216;-78
2021/09/22 21:29:49;;;;;;;9.33;6.03;;;;;11.20;101971.00;;;;10439137;28;20194;-78
2021/09/22 21:34:51;;;;;;;8.30;6.07;;;;;11.10;101967.00;;;;10470483;28;20240;-78
2021/09/22 21:39:53;;;;;;;10.87;7.03;;;;;11.10;101971.00;;;;10438853;28;20304;-78
2021/09/22 21:44:55;;;;;;;8.97;6.83;;;;;11.00;101974.00;;;;10456883;28;20186;-78
2021/09/22 21:49:57;;;;;;;10.07;6.50;;;;;11.00;101972.00;;;;10448243;28;20710;-78
2021/09/22 21:54:58;;;;;;;10.07;6.43;;;;;10.90;101968.00;;;;10458729;28;20641;-78
2021/09/22 22:00:04;;;;;;;8.77;6.33;;;;;10.80;101965.00;;;;10452778;28;20681;-78
2021/09/22 22:05:13;;;;;;;10.73;7.00;;;;;10.80;101957.00;;;;10479500;28;20221;-78
2021/09/22 22:10:16;;;;;;;9.40;7.00;;;;;10.70;101936.00;;;;10444768;28;20220;-77
2021/09/22 22:15:19;;;;;;;12.23;8.70;;;;;10.80;101932.00;;;;10434291;28;20632;-77
2021/09/22 22:20:21;;;;;;;11.63;8.37;;;;;10.90;101924.00;;;;10442412;28;20247;-77
2021/09/22 22:25:25;;;;;;;11.40;8.40;;;;;11.00;101930.00;;;;10440986;28;20177;-77
2021/09/22 22:30:28;;;;;;;12.07;8.70;;;;;11.00;101924.00;;;;10433493;28;20830;-77
2021/09/22 22:35:30;;;;;;;11.10;9.00;;;;;11.10;101913.00;;;;10422792;28;20269;-77
2021/09/22 22:40:32;;;;;;;13.03;8.20;;;;;11.10;101929.00;;;;10443226;28;20748;-77
2021/09/22 22:45:34;;;;;;;14.27;8.83;;;;;11.10;101919.00;;;;10454100;28;20284;-77
2021/09/22 22:50:36;;;;;;;13.27;8.97;;;;;11.10;101907.00;;;;10434835;28;20220;-78
2021/09/22 22:55:38;;;;;;;13.87;8.43;;;;;11.10;101913.00;;;;10430051;28;20205;-77
2021/09/22 23:00:40;;;;;;;13.97;8.07;;;;;11.10;101903.00;;;;10435485;28;20241;-77
2021/09/22 23:05:42;;;;;;;12.50;8.43;;;;;11.10;101893.00;;;;10457774;28;20183;-77
2021/09/22 23:10:44;;;;;;;13.13;8.47;;;;;11.10;101889.00;;;;10426529;28;20186;-77
2021/09/22 23:15:49;;;;;;;15.27;8.57;;;;;11.10;101884.00;;;;10422648;28;20575;-77
2021/09/22 23:21:19;;;;;;;11.47;8.03;;;;;11.10;101889.00;;;;10422100;28;20214;-77
2021/09/22 23:26:22;;;;;;;10.60;8.47;;;;;11.20;101886.00;;;;10423268;28;20258;-77
2021/09/22 23:31:24;;;;;;;12.13;8.60;;;;;11.20;101873.00;;;;10437668;28;20225;-78
2021/09/22 23:36:26;;;;;;;13.57;8.03;;;;;11.10;101871.00;;;;10483889;28;20186;-77
2021/09/22 23:41:28;;;;;;;11.37;7.73;;;;;11.10;101857.00;;;;10468009;28;20739;-77
2021/09/22 23:46:30;;;;;;;12.07;7.37;;;;;11.10;101856.00;;;;10456852;28;20565;-77
2021/09/22 23:51:32;;;;;;;9.97;8.17;;;;;11.20;101864.00;;;;10451069;28;20186;-77
2021/09/22 23:56:34;;;;;;;11.27;9.03;;;;;11.20;101863.00;;;;10458012;28;20198;-77
